sensor_id;sensor_type;location;lat;lon;timestamp;temperature;humidity
10386;DHT22;34307;51.332;12.334;2022-08-11T00:02:26;18.80;21.60
10386;DHT22;34307;51.332;12.334;2022-08-11T00:04:56;18.80;21.40
10386;DHT22;34307;51.332;12.334;2022-08-11T00:07:28;18.80;21.80
10386;DHT22;34307;51.332;12.334;2022-08-11T00:09:58;18.80;22.30
10386;DHT22;34307;51.332;12.334;2022-08-11T00:12:26;18.70;22.50
10386;DHT22;34307;51.332;12.334;2022-08-11T00:14:58;18.60;23.90
10386;DHT22;34307;51.332;12.334;2022-08-11T00:17:28;18.50;24.50
10386;DHT22;34307;51.332;12.334;2022-08-11T00:20:04;18.50;26.00
10386;DHT22;34307;51.332;12.334;2022-08-11T00:22:44;18.50;27.30
10386;DHT22;34307;51.332;12.334;2022-08-11T00:25:15;18.50;27.20
10386;DHT22;34307;51.332;12.334;2022-08-11T00:27:44;18.50;26.80
10386;DHT22;34307;51.332;12.334;2022-08-11T00:30:14;18.50;27.50
10386;DHT22;34307;51.332;12.334;2022-08-11T00:32:45;18.50;28.30
10386;DHT22;34307;51.332;12.334;2022-08-11T00:35:25;18.50;28.70
10386;DHT22;34307;51.332;12.334;2022-08-11T00:38:14;18.50;29.50
10386;DHT22;34307;51.332;12.334;2022-08-11T00:40:44;18.50;29.70
10386;DHT22;34307;51.332;12.334;2022-08-11T00:43:21;18.40;30.40
10386;DHT22;34307;51.332;12.334;2022-08-11T00:46:10;18.30;32.00
10386;DHT22;34307;51.332;12.334;2022-08-11T00:48:52;18.30;32.80
10386;DHT22;34307;51.332;12.334;2022-08-11T00:51:36;18.20;34.10
10386;DHT22;34307;51.332;12.334;2022-08-11T01:00:48;18.30;33.60
10386;DHT22;34307;51.332;12.334;2022-08-11T01:03:35;18.30;34.80
10386;DHT22;34307;51.332;12.334;2022-08-11T01:06:36;18.20;35.40
10386;DHT22;34307;51.332;12.334;2022-08-11T01:12:34;18.10;37.40
10386;DHT22;34307;51.332;12.334;2022-08-11T01:15:44;18.10;38.20
10386;DHT22;34307;51.332;12.334;2022-08-11T01:19:06;17.90;39.30
10386;DHT22;34307;51.332;12.334;2022-08-11T01:22:13;18.00;40.60
10386;DHT22;34307;51.332;12.334;2022-08-11T01:25:18;17.90;41.90
10386;DHT22;34307;51.332;12.334;2022-08-11T01:41:00;17.80;43.50
10386;DHT22;34307;51.332;12.334;2022-08-11T01:47:01;17.80;45.00
10386;DHT22;34307;51.332;12.334;2022-08-11T01:49:38;17.80;45.20
10386;DHT22;34307;51.332;12.334;2022-08-11T01:52:35;17.80;45.40
10386;DHT22;34307;51.332;12.334;2022-08-11T01:55:15;17.90;45.30
10386;DHT22;34307;51.332;12.334;2022-08-11T01:57:49;17.90;45.00
10386;DHT22;34307;51.332;12.334;2022-08-11T02:00:21;17.90;45.20
10386;DHT22;34307;51.332;12.334;2022-08-11T02:02:56;17.80;45.80
10386;DHT22;34307;51.332;12.334;2022-08-11T02:05:54;17.80;46.80
10386;DHT22;34307;51.332;12.334;2022-08-11T02:08:43;17.70;48.50
10386;DHT22;34307;51.332;12.334;2022-08-11T02:11:24;17.80;49.00
10386;DHT22;34307;51.332;12.334;2022-08-11T02:14:14;17.80;49.40
10386;DHT22;34307;51.332;12.334;2022-08-11T02:16:51;17.70;50.30
10386;DHT22;34307;51.332;12.334;2022-08-11T02:19:29;17.60;52.10
10386;DHT22;34307;51.332;12.334;2022-08-11T02:22:24;17.60;53.80
10386;DHT22;34307;51.332;12.334;2022-08-11T02:25:21;17.50;55.00
10386;DHT22;34307;51.332;12.334;2022-08-11T02:27:57;17.50;55.70
10386;DHT22;34307;51.332;12.334;2022-08-11T02:30:33;17.40;56.50
10386;DHT22;34307;51.332;12.334;2022-08-11T02:33:25;17.40;58.50
10386;DHT22;34307;51.332;12.334;2022-08-11T02:36:00;17.40;59.40
10386;DHT22;34307;51.332;12.334;2022-08-11T02:38:35;17.40;61.60
10386;DHT22;34307;51.332;12.334;2022-08-11T02:41:13;17.30;62.50
10386;DHT22;34307;51.332;12.334;2022-08-11T02:44:15;17.30;65.20
10386;DHT22;34307;51.332;12.334;2022-08-11T02:46:55;17.30;65.30
10386;DHT22;34307;51.332;12.334;2022-08-11T02:49:35;17.30;66.10
10386;DHT22;34307;51.332;12.334;2022-08-11T02:52:38;17.20;67.10
10386;DHT22;34307;51.332;12.334;2022-08-11T02:55:17;17.10;67.60
10386;DHT22;34307;51.332;12.334;2022-08-11T02:58:12;17.10;68.20
10386;DHT22;34307;51.332;12.334;2022-08-11T03:00:48;17.10;69.70
10386;DHT22;34307;51.332;12.334;2022-08-11T03:03:22;17.10;69.50
10386;DHT22;34307;51.332;12.334;2022-08-11T03:06:02;17.10;69.40
10386;DHT22;34307;51.332;12.334;2022-08-11T03:08:50;17.10;71.40
10386;DHT22;34307;51.332;12.334;2022-08-11T03:11:37;17.00;70.60
10386;DHT22;34307;51.332;12.334;2022-08-11T03:14:46;17.00;71.90
10386;DHT22;34307;51.332;12.334;2022-08-11T03:17:39;16.90;73.30
10386;DHT22;34307;51.332;12.334;2022-08-11T03:20:27;16.90;73.00
10386;DHT22;34307;51.332;12.334;2022-08-11T03:23:08;17.00;72.90
10386;DHT22;34307;51.332;12.334;2022-08-11T03:25:57;17.00;72.50
10386;DHT22;34307;51.332;12.334;2022-08-11T03:28:31;16.90;74.60
10386;DHT22;34307;51.332;12.334;2022-08-11T03:31:17;16.90;74.90
10386;DHT22;34307;51.332;12.334;2022-08-11T03:33:49;16.80;75.90
10386;DHT22;34307;51.332;12.334;2022-08-11T03:39:52;16.70;78.30
10386;DHT22;34307;51.332;12.334;2022-08-11T03:42:28;16.80;78.00
10386;DHT22;34307;51.332;12.334;2022-08-11T03:45:04;16.90;77.20
10386;DHT22;34307;51.332;12.334;2022-08-11T03:47:48;16.90;76.00
10386;DHT22;34307;51.332;12.334;2022-08-11T03:53:54;16.70;77.20
10386;DHT22;34307;51.332;12.334;2022-08-11T04:00:02;16.60;79.80
10386;DHT22;34307;51.332;12.334;2022-08-11T04:03:08;16.60;80.70
10386;DHT22;34307;51.332;12.334;2022-08-11T04:06:24;16.70;80.60
10386;DHT22;34307;51.332;12.334;2022-08-11T04:09:23;16.80;81.10
10386;DHT22;34307;51.332;12.334;2022-08-11T04:18:54;16.80;81.60
10386;DHT22;34307;51.332;12.334;2022-08-11T04:22:21;16.80;82.00
10386;DHT22;34307;51.332;12.334;2022-08-11T04:25:03;16.80;83.70
10386;DHT22;34307;51.332;12.334;2022-08-11T04:27:58;16.90;84.90
10386;DHT22;34307;51.332;12.334;2022-08-11T04:30:46;16.80;84.40
10386;DHT22;34307;51.332;12.334;2022-08-11T04:33:42;16.80;85.90
10386;DHT22;34307;51.332;12.334;2022-08-11T04:36:36;16.80;85.70
10386;DHT22;34307;51.332;12.334;2022-08-11T04:39:38;16.90;87.00
10386;DHT22;34307;51.332;12.334;2022-08-11T04:49:31;17.00;90.50
10386;DHT22;34307;51.332;12.334;2022-08-11T04:53:12;17.10;90.90
10386;DHT22;34307;51.332;12.334;2022-08-11T04:56:09;17.10;90.40
10386;DHT22;34307;51.332;12.334;2022-08-11T04:59:26;17.10;90.70
10386;DHT22;34307;51.332;12.334;2022-08-11T05:05:43;17.20;91.60
10386;DHT22;34307;51.332;12.334;2022-08-11T05:12:01;17.30;90.80
10386;DHT22;34307;51.332;12.334;2022-08-11T05:14:35;17.40;90.50
10386;DHT22;34307;51.332;12.334;2022-08-11T05:17:44;17.40;90.30
10386;DHT22;34307;51.332;12.334;2022-08-11T05:20:45;17.40;89.50
10386;DHT22;34307;51.332;12.334;2022-08-11T05:23:35;17.50;90.20
10386;DHT22;34307;51.332;12.334;2022-08-11T05:26:24;17.50;90.40
10386;DHT22;34307;51.332;12.334;2022-08-11T05:29:27;17.60;90.10
10386;DHT22;34307;51.332;12.334;2022-08-11T05:32:22;17.70;88.20
10386;DHT22;34307;51.332;12.334;2022-08-11T05:35:09;17.70;89.00
10386;DHT22;34307;51.332;12.334;2022-08-11T05:37:58;17.80;87.70
10386;DHT22;34307;51.332;12.334;2022-08-11T05:40:48;17.90;85.80
10386;DHT22;34307;51.332;12.334;2022-08-11T05:43:39;18.10;84.30
10386;DHT22;34307;51.332;12.334;2022-08-11T05:46:48;18.20;81.40
10386;DHT22;34307;51.332;12.334;2022-08-11T05:49:35;18.20;80.20
10386;DHT22;34307;51.332;12.334;2022-08-11T05:52:25;18.30;77.90
10386;DHT22;34307;51.332;12.334;2022-08-11T05:55:15;18.30;77.70
10386;DHT22;34307;51.332;12.334;2022-08-11T05:58:21;18.40;77.10
10386;DHT22;34307;51.332;12.334;2022-08-11T06:00:50;18.40;76.10
10386;DHT22;34307;51.332;12.334;2022-08-11T06:03:25;18.40;76.60
10386;DHT22;34307;51.332;12.334;2022-08-11T06:05:56;18.40;76.20
10386;DHT22;34307;51.332;12.334;2022-08-11T06:08:30;18.50;74.90
10386;DHT22;34307;51.332;12.334;2022-08-11T06:11:03;18.60;73.20
10386;DHT22;34307;51.332;12.334;2022-08-11T06:13:32;18.80;71.30
10386;DHT22;34307;51.332;12.334;2022-08-11T06:16:01;18.90;70.10
10386;DHT22;34307;51.332;12.334;2022-08-11T06:18:33;19.00;68.80
10386;DHT22;34307;51.332;12.334;2022-08-11T06:21:08;19.10;69.30
10386;DHT22;34307;51.332;12.334;2022-08-11T06:23:38;19.00;70.30
10386;DHT22;34307;51.332;12.334;2022-08-11T06:26:09;19.00;69.70
10386;DHT22;34307;51.332;12.334;2022-08-11T06:28:40;19.10;68.90
10386;DHT22;34307;51.332;12.334;2022-08-11T06:31:12;19.20;68.70
10386;DHT22;34307;51.332;12.334;2022-08-11T06:33:52;19.20;68.60
10386;DHT22;34307;51.332;12.334;2022-08-11T06:36:29;19.20;69.10
10386;DHT22;34307;51.332;12.334;2022-08-11T06:41:55;19.50;64.90
10386;DHT22;34307;51.332;12.334;2022-08-11T06:44:28;19.50;63.10
10386;DHT22;34307;51.332;12.334;2022-08-11T06:47:06;19.70;62.00
10386;DHT22;34307;51.332;12.334;2022-08-11T06:49:39;19.90;61.10
10386;DHT22;34307;51.332;12.334;2022-08-11T06:52:31;19.90;60.20
10386;DHT22;34307;51.332;12.334;2022-08-11T06:55:06;20.00;59.40
10386;DHT22;34307;51.332;12.334;2022-08-11T06:57:55;20.20;59.00
10386;DHT22;34307;51.332;12.334;2022-08-11T07:00:41;20.20;58.70
10386;DHT22;34307;51.332;12.334;2022-08-11T07:03:15;20.30;57.80
10386;DHT22;34307;51.332;12.334;2022-08-11T07:05:47;20.40;57.80
10386;DHT22;34307;51.332;12.334;2022-08-11T07:11:58;20.40;56.70
10386;DHT22;34307;51.332;12.334;2022-08-11T07:14:49;20.50;56.10
10386;DHT22;34307;51.332;12.334;2022-08-11T07:17:40;20.60;55.10
10386;DHT22;34307;51.332;12.334;2022-08-11T07:20:10;20.80;54.20
10386;DHT22;34307;51.332;12.334;2022-08-11T07:22:59;21.00;53.40
10386;DHT22;34307;51.332;12.334;2022-08-11T07:25:51;21.20;52.30
10386;DHT22;34307;51.332;12.334;2022-08-11T07:28:43;21.20;51.30
10386;DHT22;34307;51.332;12.334;2022-08-11T07:31:32;21.30;49.60
10386;DHT22;34307;51.332;12.334;2022-08-11T07:34:10;21.30;47.60
10386;DHT22;34307;51.332;12.334;2022-08-11T07:36:46;21.40;47.60
10386;DHT22;34307;51.332;12.334;2022-08-11T07:39:19;21.70;46.50
10386;DHT22;34307;51.332;12.334;2022-08-11T07:41:53;21.80;45.80
10386;DHT22;34307;51.332;12.334;2022-08-11T07:44:24;21.90;45.40
10386;DHT22;34307;51.332;12.334;2022-08-11T07:47:00;22.00;45.80
10386;DHT22;34307;51.332;12.334;2022-08-11T07:49:55;22.00;45.00
10386;DHT22;34307;51.332;12.334;2022-08-11T07:52:45;22.20;44.60
10386;DHT22;34307;51.332;12.334;2022-08-11T07:55:20;22.20;43.70
10386;DHT22;34307;51.332;12.334;2022-08-11T07:58:12;22.30;42.80
10386;DHT22;34307;51.332;12.334;2022-08-11T08:01:12;22.50;40.10
10386;DHT22;34307;51.332;12.334;2022-08-11T08:04:04;22.70;38.30
10386;DHT22;34307;51.332;12.334;2022-08-11T08:06:50;22.80;35.90
10386;DHT22;34307;51.332;12.334;2022-08-11T08:09:37;22.90;33.50
10386;DHT22;34307;51.332;12.334;2022-08-11T08:12:24;22.90;30.90
10386;DHT22;34307;51.332;12.334;2022-08-11T08:15:13;23.00;26.80
10386;DHT22;34307;51.332;12.334;2022-08-11T08:18:02;23.20;24.60
10386;DHT22;34307;51.332;12.334;2022-08-11T08:20:53;23.40;22.20
10386;DHT22;34307;51.332;12.334;2022-08-11T08:23:26;23.50;19.10
10386;DHT22;34307;51.332;12.334;2022-08-11T08:26:02;23.70;16.70
10386;DHT22;34307;51.332;12.334;2022-08-11T08:28:32;23.80;13.70
10386;DHT22;34307;51.332;12.334;2022-08-11T08:31:03;24.00;13.30
10386;DHT22;34307;51.332;12.334;2022-08-11T08:33:31;24.10;10.90
10386;DHT22;34307;51.332;12.334;2022-08-11T08:36:03;24.40;10.20
10386;DHT22;34307;51.332;12.334;2022-08-11T08:38:46;24.70;8.40
10386;DHT22;34307;51.332;12.334;2022-08-11T08:41:19;25.00;5.70
10386;DHT22;34307;51.332;12.334;2022-08-11T08:43:54;25.10;1.70
10386;DHT22;34307;51.332;12.334;2022-08-11T08:46:45;25.10;1.50
10386;DHT22;34307;51.332;12.334;2022-08-11T08:49:22;25.50;1.00
10386;DHT22;34307;51.332;12.334;2022-08-11T08:51:54;25.50;1.00
10386;DHT22;34307;51.332;12.334;2022-08-11T08:54:48;25.70;1.00
10386;DHT22;34307;51.332;12.334;2022-08-11T08:57:22;25.80;1.00
10386;DHT22;34307;51.332;12.334;2022-08-11T08:59:51;25.90;1.00
10386;DHT22;34307;51.332;12.334;2022-08-11T09:02:25;26.10;1.00
10386;DHT22;34307;51.332;12.334;2022-08-11T09:05:02;26.20;1.00
10386;DHT22;34307;51.332;12.334;2022-08-11T09:07:31;26.40;1.00
10386;DHT22;34307;51.332;12.334;2022-08-11T09:10:07;26.40;1.00
10386;DHT22;34307;51.332;12.334;2022-08-11T09:12:39;26.60;1.00
10386;DHT22;34307;51.332;12.334;2022-08-11T09:15:11;26.60;1.00
10386;DHT22;34307;51.332;12.334;2022-08-11T09:17:50;26.80;1.00
10386;DHT22;34307;51.332;12.334;2022-08-11T09:20:31;26.80;1.00
10386;DHT22;34307;51.332;12.334;2022-08-11T09:23:02;26.40;1.00
10386;DHT22;34307;51.332;12.334;2022-08-11T09:26:10;26.30;1.00
10386;DHT22;34307;51.332;12.334;2022-08-11T09:29:00;26.50;1.00
10386;DHT22;34307;51.332;12.334;2022-08-11T09:31:30;26.80;1.00
10386;DHT22;34307;51.332;12.334;2022-08-11T09:34:07;27.10;1.00
10386;DHT22;34307;51.332;12.334;2022-08-11T09:36:38;27.40;1.00
10386;DHT22;34307;51.332;12.334;2022-08-11T09:39:26;27.50;1.00
10386;DHT22;34307;51.332;12.334;2022-08-11T09:42:12;27.50;1.00
10386;DHT22;34307;51.332;12.334;2022-08-11T09:44:50;27.50;1.00
10386;DHT22;34307;51.332;12.334;2022-08-11T09:47:21;27.70;1.00
10386;DHT22;34307;51.332;12.334;2022-08-11T09:49:54;27.90;1.00
10386;DHT22;34307;51.332;12.334;2022-08-11T09:52:29;28.20;1.00
10386;DHT22;34307;51.332;12.334;2022-08-11T09:54:59;28.10;1.00
10386;DHT22;34307;51.332;12.334;2022-08-11T09:57:28;28.00;1.00
10386;DHT22;34307;51.332;12.334;2022-08-11T10:00:15;28.00;1.00
10386;DHT22;34307;51.332;12.334;2022-08-11T10:02:45;28.00;1.00
10386;DHT22;34307;51.332;12.334;2022-08-11T10:05:17;28.20;1.00
10386;DHT22;34307;51.332;12.334;2022-08-11T10:08:04;28.20;1.00
10386;DHT22;34307;51.332;12.334;2022-08-11T10:10:35;28.30;1.00
10386;DHT22;34307;51.332;12.334;2022-08-11T10:13:06;28.20;1.00
10386;DHT22;34307;51.332;12.334;2022-08-11T10:15:58;28.10;1.00
10386;DHT22;34307;51.332;12.334;2022-08-11T10:18:45;28.10;1.00
10386;DHT22;34307;51.332;12.334;2022-08-11T10:21:31;28.20;1.00
10386;DHT22;34307;51.332;12.334;2022-08-11T10:24:05;28.10;1.00
10386;DHT22;34307;51.332;12.334;2022-08-11T10:26:53;28.30;1.00
10386;DHT22;34307;51.332;12.334;2022-08-11T10:29:27;28.90;1.00
10386;DHT22;34307;51.332;12.334;2022-08-11T10:32:20;29.00;1.00
10386;DHT22;34307;51.332;12.334;2022-08-11T10:35:24;29.20;1.00
10386;DHT22;34307;51.332;12.334;2022-08-11T10:37:54;29.30;1.00
10386;DHT22;34307;51.332;12.334;2022-08-11T10:40:36;29.10;1.00
10386;DHT22;34307;51.332;12.334;2022-08-11T10:43:07;29.30;1.00
10386;DHT22;34307;51.332;12.334;2022-08-11T10:45:41;29.30;1.00
10386;DHT22;34307;51.332;12.334;2022-08-11T10:48:34;29.60;1.00
10386;DHT22;34307;51.332;12.334;2022-08-11T10:51:04;29.80;1.00
10386;DHT22;34307;51.332;12.334;2022-08-11T10:54:04;29.90;1.00
10386;DHT22;34307;51.332;12.334;2022-08-11T10:56:52;29.90;1.00
10386;DHT22;34307;51.332;12.334;2022-08-11T10:59:39;30.00;1.00
10386;DHT22;34307;51.332;12.334;2022-08-11T11:02:10;29.60;1.00
10386;DHT22;34307;51.332;12.334;2022-08-11T11:04:56;29.90;1.00
10386;DHT22;34307;51.332;12.334;2022-08-11T11:07:34;30.30;1.00
10386;DHT22;34307;51.332;12.334;2022-08-11T11:10:11;30.50;1.00
10386;DHT22;34307;51.332;12.334;2022-08-11T11:12:43;30.70;1.00
10386;DHT22;34307;51.332;12.334;2022-08-11T11:15:33;30.50;1.00
10386;DHT22;34307;51.332;12.334;2022-08-11T11:18:25;30.60;1.00
10386;DHT22;34307;51.332;12.334;2022-08-11T11:20:57;30.60;1.00
10386;DHT22;34307;51.332;12.334;2022-08-11T11:23:32;30.70;1.00
10386;DHT22;34307;51.332;12.334;2022-08-11T11:26:19;30.80;1.00
10386;DHT22;34307;51.332;12.334;2022-08-11T11:29:27;31.00;1.00
10386;DHT22;34307;51.332;12.334;2022-08-11T11:32:10;31.60;1.00
10386;DHT22;34307;51.332;12.334;2022-08-11T11:35:00;31.60;1.00
10386;DHT22;34307;51.332;12.334;2022-08-11T11:37:31;31.60;1.00
10386;DHT22;34307;51.332;12.334;2022-08-11T11:40:05;31.60;1.00
10386;DHT22;34307;51.332;12.334;2022-08-11T11:42:38;31.70;1.00
10386;DHT22;34307;51.332;12.334;2022-08-11T11:45:08;32.20;1.00
10386;DHT22;34307;51.332;12.334;2022-08-11T11:47:50;32.10;1.00
10386;DHT22;34307;51.332;12.334;2022-08-11T11:50:23;31.90;1.00
10386;DHT22;34307;51.332;12.334;2022-08-11T11:52:59;32.20;1.00
10386;DHT22;34307;51.332;12.334;2022-08-11T11:55:29;32.10;1.00
10386;DHT22;34307;51.332;12.334;2022-08-11T11:58:00;32.60;1.00
10386;DHT22;34307;51.332;12.334;2022-08-11T12:00:48;32.90;1.00
10386;DHT22;34307;51.332;12.334;2022-08-11T12:03:36;32.70;1.00
10386;DHT22;34307;51.332;12.334;2022-08-11T12:06:06;32.60;1.00
10386;DHT22;34307;51.332;12.334;2022-08-11T12:08:36;32.20;1.00
10386;DHT22;34307;51.332;12.334;2022-08-11T12:11:07;32.30;1.00
10386;DHT22;34307;51.332;12.334;2022-08-11T12:13:56;31.90;1.00
10386;DHT22;34307;51.332;12.334;2022-08-11T12:16:26;32.50;1.00
10386;DHT22;34307;51.332;12.334;2022-08-11T12:19:03;32.80;1.00
10386;DHT22;34307;51.332;12.334;2022-08-11T12:21:33;32.90;1.00
10386;DHT22;34307;51.332;12.334;2022-08-11T12:24:03;33.00;1.00
10386;DHT22;34307;51.332;12.334;2022-08-11T12:26:56;33.00;1.00
10386;DHT22;34307;51.332;12.334;2022-08-11T12:29:46;33.60;1.00
10386;DHT22;34307;51.332;12.334;2022-08-11T12:32:23;33.40;1.00
10386;DHT22;34307;51.332;12.334;2022-08-11T12:34:52;33.90;1.00
10386;DHT22;34307;51.332;12.334;2022-08-11T12:37:29;33.80;1.00
10386;DHT22;34307;51.332;12.334;2022-08-11T12:40:00;33.80;1.00
10386;DHT22;34307;51.332;12.334;2022-08-11T12:43:11;33.50;1.00
10386;DHT22;34307;51.332;12.334;2022-08-11T12:46:09;34.20;1.00
10386;DHT22;34307;51.332;12.334;2022-08-11T12:48:43;34.30;1.00
10386;DHT22;34307;51.332;12.334;2022-08-11T12:51:33;34.50;1.00
10386;DHT22;34307;51.332;12.334;2022-08-11T12:54:45;34.50;1.00
10386;DHT22;34307;51.332;12.334;2022-08-11T12:57:23;34.70;1.00
10386;DHT22;34307;51.332;12.334;2022-08-11T13:00:11;34.80;1.00
10386;DHT22;34307;51.332;12.334;2022-08-11T13:02:58;34.50;1.00
10386;DHT22;34307;51.332;12.334;2022-08-11T13:05:46;34.50;1.00
10386;DHT22;34307;51.332;12.334;2022-08-11T13:08:16;34.80;1.00
10386;DHT22;34307;51.332;12.334;2022-08-11T13:10:45;35.30;1.00
10386;DHT22;34307;51.332;12.334;2022-08-11T13:13:32;35.00;1.00
10386;DHT22;34307;51.332;12.334;2022-08-11T13:16:22;34.00;1.00
10386;DHT22;34307;51.332;12.334;2022-08-11T13:18:52;34.50;1.00
10386;DHT22;34307;51.332;12.334;2022-08-11T13:21:21;35.00;1.00
10386;DHT22;34307;51.332;12.334;2022-08-11T13:23:51;35.00;99.90
10386;DHT22;34307;51.332;12.334;2022-08-11T13:26:30;34.70;99.90
10386;DHT22;34307;51.332;12.334;2022-08-11T13:29:19;34.80;99.90
10386;DHT22;34307;51.332;12.334;2022-08-11T13:31:49;34.80;99.90
10386;DHT22;34307;51.332;12.334;2022-08-11T13:34:19;34.10;99.90
10386;DHT22;34307;51.332;12.334;2022-08-11T13:36:49;34.40;99.90
10386;DHT22;34307;51.332;12.334;2022-08-11T13:39:20;34.10;99.90
10386;DHT22;34307;51.332;12.334;2022-08-11T13:41:51;34.40;99.90
10386;DHT22;34307;51.332;12.334;2022-08-11T13:44:20;35.20;99.90
10386;DHT22;34307;51.332;12.334;2022-08-11T13:46:52;36.20;99.90
10386;DHT22;34307;51.332;12.334;2022-08-11T13:49:23;36.40;99.90
10386;DHT22;34307;51.332;12.334;2022-08-11T13:51:52;36.60;1.00
10386;DHT22;34307;51.332;12.334;2022-08-11T13:54:22;37.00;1.00
10386;DHT22;34307;51.332;12.334;2022-08-11T13:57:03;37.40;1.00
10386;DHT22;34307;51.332;12.334;2022-08-11T13:59:35;37.00;1.00
10386;DHT22;34307;51.332;12.334;2022-08-11T14:02:20;37.40;1.00
10386;DHT22;34307;51.332;12.334;2022-08-11T14:05:02;37.30;1.00
10386;DHT22;34307;51.332;12.334;2022-08-11T14:07:35;37.70;1.00
10386;DHT22;34307;51.332;12.334;2022-08-11T14:10:06;37.50;1.00
10386;DHT22;34307;51.332;12.334;2022-08-11T14:12:36;37.40;1.00
10386;DHT22;34307;51.332;12.334;2022-08-11T14:15:27;36.70;1.00
10386;DHT22;34307;51.332;12.334;2022-08-11T14:18:02;35.80;1.00
10386;DHT22;34307;51.332;12.334;2022-08-11T14:20:33;36.40;1.00
10386;DHT22;34307;51.332;12.334;2022-08-11T14:23:17;36.90;1.00
10386;DHT22;34307;51.332;12.334;2022-08-11T14:25:46;36.90;1.00
10386;DHT22;34307;51.332;12.334;2022-08-11T14:28:30;37.00;1.00
10386;DHT22;34307;51.332;12.334;2022-08-11T14:31:10;37.60;1.00
10386;DHT22;34307;51.332;12.334;2022-08-11T14:33:39;37.80;1.00
10386;DHT22;34307;51.332;12.334;2022-08-11T14:36:29;37.70;1.00
10386;DHT22;34307;51.332;12.334;2022-08-11T14:38:59;37.80;1.00
10386;DHT22;34307;51.332;12.334;2022-08-11T14:41:28;37.90;1.00
10386;DHT22;34307;51.332;12.334;2022-08-11T14:44:36;37.80;1.00
10386;DHT22;34307;51.332;12.334;2022-08-11T14:47:22;37.60;1.00
10386;DHT22;34307;51.332;12.334;2022-08-11T14:49:54;38.00;1.00
10386;DHT22;34307;51.332;12.334;2022-08-11T14:52:42;37.50;1.00
10386;DHT22;34307;51.332;12.334;2022-08-11T14:55:12;37.50;1.00
10386;DHT22;34307;51.332;12.334;2022-08-11T14:57:59;37.70;1.00
10386;DHT22;34307;51.332;12.334;2022-08-11T15:00:28;37.40;1.00
10386;DHT22;34307;51.332;12.334;2022-08-11T15:02:58;36.90;1.00
10386;DHT22;34307;51.332;12.334;2022-08-11T15:05:43;36.90;1.00
10386;DHT22;34307;51.332;12.334;2022-08-11T15:08:26;37.40;1.00
10386;DHT22;34307;51.332;12.334;2022-08-11T15:11:34;37.90;1.00
10386;DHT22;34307;51.332;12.334;2022-08-11T15:14:20;38.20;1.00
10386;DHT22;34307;51.332;12.334;2022-08-11T15:17:02;38.00;1.00
10386;DHT22;34307;51.332;12.334;2022-08-11T15:19:38;37.50;1.00
10386;DHT22;34307;51.332;12.334;2022-08-11T15:22:27;38.10;1.00
10386;DHT22;34307;51.332;12.334;2022-08-11T15:25:14;38.50;1.00
10386;DHT22;34307;51.332;12.334;2022-08-11T15:27:44;39.20;1.00
10386;DHT22;34307;51.332;12.334;2022-08-11T15:30:30;39.50;1.00
10386;DHT22;34307;51.332;12.334;2022-08-11T15:33:17;38.80;1.00
10386;DHT22;34307;51.332;12.334;2022-08-11T15:36:06;38.10;1.00
10386;DHT22;34307;51.332;12.334;2022-08-11T15:38:57;38.40;13.70
10386;DHT22;34307;51.332;12.334;2022-08-11T15:41:33;39.30;41.40
10386;DHT22;34307;51.332;12.334;2022-08-11T15:44:26;37.80;96.20
10386;DHT22;34307;51.332;12.334;2022-08-11T15:47:34;38.30;99.90
10386;DHT22;34307;51.332;12.334;2022-08-11T15:50:04;38.60;99.90
10386;DHT22;34307;51.332;12.334;2022-08-11T15:52:47;38.00;99.90
10386;DHT22;34307;51.332;12.334;2022-08-11T15:55:17;38.50;99.90
10386;DHT22;34307;51.332;12.334;2022-08-11T15:57:49;38.20;99.90
10386;DHT22;34307;51.332;12.334;2022-08-11T16:00:37;38.00;99.90
10386;DHT22;34307;51.332;12.334;2022-08-11T16:03:32;38.10;99.90
10386;DHT22;34307;51.332;12.334;2022-08-11T16:06:36;38.10;99.90
10386;DHT22;34307;51.332;12.334;2022-08-11T16:09:14;38.50;99.90
10386;DHT22;34307;51.332;12.334;2022-08-11T16:11:45;38.10;99.90
10386;DHT22;34307;51.332;12.334;2022-08-11T16:14:18;36.70;99.90
10386;DHT22;34307;51.332;12.334;2022-08-11T16:17:06;37.00;99.90
10386;DHT22;34307;51.332;12.334;2022-08-11T16:19:35;37.60;99.90
10386;DHT22;34307;51.332;12.334;2022-08-11T16:22:06;37.30;99.90
10386;DHT22;34307;51.332;12.334;2022-08-11T16:24:37;37.30;99.90
10386;DHT22;34307;51.332;12.334;2022-08-11T16:27:30;37.60;99.90
10386;DHT22;34307;51.332;12.334;2022-08-11T16:30:02;36.90;99.90
10386;DHT22;34307;51.332;12.334;2022-08-11T16:32:33;36.60;99.90
10386;DHT22;34307;51.332;12.334;2022-08-11T16:35:05;36.60;99.90
10386;DHT22;34307;51.332;12.334;2022-08-11T16:37:52;36.40;99.90
10386;DHT22;34307;51.332;12.334;2022-08-11T16:40:38;37.50;99.90
10386;DHT22;34307;51.332;12.334;2022-08-11T16:43:12;37.10;99.90
10386;DHT22;34307;51.332;12.334;2022-08-11T16:46:02;37.10;99.90
10386;DHT22;34307;51.332;12.334;2022-08-11T16:49:01;37.00;99.90
10386;DHT22;34307;51.332;12.334;2022-08-11T16:51:31;36.90;99.90
10386;DHT22;34307;51.332;12.334;2022-08-11T16:54:00;36.30;99.90
10386;DHT22;34307;51.332;12.334;2022-08-11T16:56:35;36.00;99.90
10386;DHT22;34307;51.332;12.334;2022-08-11T16:59:08;35.70;99.90
10386;DHT22;34307;51.332;12.334;2022-08-11T17:01:47;35.50;99.90
10386;DHT22;34307;51.332;12.334;2022-08-11T17:04:33;36.10;1.00
10386;DHT22;34307;51.332;12.334;2022-08-11T17:07:22;36.50;1.00
10386;DHT22;34307;51.332;12.334;2022-08-11T17:10:22;36.40;99.90
10386;DHT22;34307;51.332;12.334;2022-08-11T17:13:25;36.60;99.90
10386;DHT22;34307;51.332;12.334;2022-08-11T17:15:57;36.20;99.90
10386;DHT22;34307;51.332;12.334;2022-08-11T17:18:44;35.80;99.90
10386;DHT22;34307;51.332;12.334;2022-08-11T17:21:18;35.70;99.90
10386;DHT22;34307;51.332;12.334;2022-08-11T17:23:50;36.00;99.90
10386;DHT22;34307;51.332;12.334;2022-08-11T17:26:27;36.20;99.90
10386;DHT22;34307;51.332;12.334;2022-08-11T17:29:22;36.30;1.00
10386;DHT22;34307;51.332;12.334;2022-08-11T17:31:53;35.70;99.90
10386;DHT22;34307;51.332;12.334;2022-08-11T17:34:47;35.40;99.90
10386;DHT22;34307;51.332;12.334;2022-08-11T17:37:43;34.40;99.90
10386;DHT22;34307;51.332;12.334;2022-08-11T17:40:17;33.00;99.90
10386;DHT22;34307;51.332;12.334;2022-08-11T17:42:51;31.90;99.90
10386;DHT22;34307;51.332;12.334;2022-08-11T17:45:42;31.40;99.90
10386;DHT22;34307;51.332;12.334;2022-08-11T17:48:31;31.10;99.90
10386;DHT22;34307;51.332;12.334;2022-08-11T17:51:18;31.30;99.90
10386;DHT22;34307;51.332;12.334;2022-08-11T17:54:01;31.40;99.90
10386;DHT22;34307;51.332;12.334;2022-08-11T17:56:51;31.50;99.90
10386;DHT22;34307;51.332;12.334;2022-08-11T17:59:47;31.30;99.90